sensor_id;sensor_type;location;lat;lon;timestamp;P1;durP1;ratioP1;P2;durP2;ratioP2
18973;SDS011;9621;48.690;9.466;2023-05-23T00:02:12;13.88;;;10.18;;
18973;SDS011;9621;48.690;9.466;2023-05-23T00:04:39;12.98;;;10.25;;
18973;SDS011;9621;48.690;9.466;2023-05-23T00:07:06;12.85;;;10.32;;
18973;SDS011;9621;48.690;9.466;2023-05-23T00:09:35;13.00;;;10.00;;
18973;SDS011;9621;48.690;9.466;2023-05-23T00:12:02;14.20;;;10.38;;
18973;SDS011;9621;48.690;9.466;2023-05-23T00:14:29;13.77;;;10.00;;
18973;SDS011;9621;48.690;9.466;2023-05-23T00:16:58;13.63;;;9.90;;
18973;SDS011;9621;48.690;9.466;2023-05-23T00:19:25;13.98;;;10.15;;
18973;SDS011;9621;48.690;9.466;2023-05-23T00:21:52;16.10;;;10.80;;
18973;SDS011;9621;48.690;9.466;2023-05-23T00:24:22;15.52;;;10.93;;
18973;SDS011;9621;48.690;9.466;2023-05-23T00:26:51;13.60;;;11.07;;
18973;SDS011;9621;48.690;9.466;2023-05-23T00:29:18;13.65;;;10.70;;
18973;SDS011;9621;48.690;9.466;2023-05-23T00:31:45;15.23;;;11.10;;
18973;SDS011;9621;48.690;9.466;2023-05-23T00:34:12;14.63;;;11.27;;
18973;SDS011;9621;48.690;9.466;2023-05-23T00:36:39;16.30;;;10.82;;
18973;SDS011;9621;48.690;9.466;2023-05-23T00:39:07;18.85;;;11.65;;
18973;SDS011;9621;48.690;9.466;2023-05-23T00:41:41;15.55;;;11.82;;
18973;SDS011;9621;48.690;9.466;2023-05-23T00:44:10;13.57;;;10.27;;
18973;SDS011;9621;48.690;9.466;2023-05-23T00:46:37;20.65;;;10.77;;
18973;SDS011;9621;48.690;9.466;2023-05-23T00:49:04;11.18;;;9.73;;
18973;SDS011;9621;48.690;9.466;2023-05-23T00:51:31;12.82;;;9.90;;
18973;SDS011;9621;48.690;9.466;2023-05-23T00:53:58;14.75;;;10.45;;
18973;SDS011;9621;48.690;9.466;2023-05-23T00:56:26;17.17;;;10.65;;
18973;SDS011;9621;48.690;9.466;2023-05-23T00:58:55;14.00;;;10.65;;
18973;SDS011;9621;48.690;9.466;2023-05-23T01:01:23;13.43;;;10.75;;
18973;SDS011;9621;48.690;9.466;2023-05-23T01:03:51;15.13;;;10.85;;
18973;SDS011;9621;48.690;9.466;2023-05-23T01:06:18;12.80;;;10.25;;
18973;SDS011;9621;48.690;9.466;2023-05-23T01:08:47;16.17;;;10.90;;
18973;SDS011;9621;48.690;9.466;2023-05-23T01:11:16;15.90;;;10.52;;
18973;SDS011;9621;48.690;9.466;2023-05-23T01:13:50;15.25;;;11.48;;
18973;SDS011;9621;48.690;9.466;2023-05-23T01:16:27;14.20;;;11.40;;
18973;SDS011;9621;48.690;9.466;2023-05-23T01:19:00;14.43;;;11.10;;
18973;SDS011;9621;48.690;9.466;2023-05-23T01:21:39;15.23;;;10.40;;
18973;SDS011;9621;48.690;9.466;2023-05-23T01:24:21;16.48;;;11.38;;
18973;SDS011;9621;48.690;9.466;2023-05-23T01:27:02;15.25;;;10.38;;
18973;SDS011;9621;48.690;9.466;2023-05-23T01:29:36;14.60;;;10.85;;
18973;SDS011;9621;48.690;9.466;2023-05-23T01:32:09;14.55;;;10.23;;
18973;SDS011;9621;48.690;9.466;2023-05-23T01:34:37;13.50;;;10.25;;
18973;SDS011;9621;48.690;9.466;2023-05-23T01:37:10;16.52;;;10.85;;
18973;SDS011;9621;48.690;9.466;2023-05-23T01:39:38;13.35;;;10.77;;
18973;SDS011;9621;48.690;9.466;2023-05-23T01:42:06;13.43;;;10.63;;
18973;SDS011;9621;48.690;9.466;2023-05-23T01:44:33;13.23;;;10.73;;
18973;SDS011;9621;48.690;9.466;2023-05-23T01:47:03;13.18;;;11.23;;
18973;SDS011;9621;48.690;9.466;2023-05-23T01:49:33;13.90;;;10.70;;
18973;SDS011;9621;48.690;9.466;2023-05-23T01:52:04;15.10;;;11.77;;
18973;SDS011;9621;48.690;9.466;2023-05-23T01:54:34;16.33;;;12.20;;
18973;SDS011;9621;48.690;9.466;2023-05-23T01:57:02;15.40;;;11.60;;
18973;SDS011;9621;48.690;9.466;2023-05-23T01:59:31;16.63;;;11.60;;
18973;SDS011;9621;48.690;9.466;2023-05-23T02:01:59;15.45;;;11.77;;
18973;SDS011;9621;48.690;9.466;2023-05-23T02:04:26;13.48;;;11.07;;
18973;SDS011;9621;48.690;9.466;2023-05-23T02:06:53;13.93;;;10.75;;
18973;SDS011;9621;48.690;9.466;2023-05-23T02:09:20;16.00;;;11.25;;
18973;SDS011;9621;48.690;9.466;2023-05-23T02:11:47;13.63;;;10.77;;
18973;SDS011;9621;48.690;9.466;2023-05-23T02:14:14;19.13;;;11.80;;
18973;SDS011;9621;48.690;9.466;2023-05-23T02:16:42;16.25;;;12.48;;
18973;SDS011;9621;48.690;9.466;2023-05-23T02:19:11;15.27;;;12.13;;
18973;SDS011;9621;48.690;9.466;2023-05-23T02:21:38;14.63;;;11.18;;
18973;SDS011;9621;48.690;9.466;2023-05-23T02:24:05;16.13;;;11.85;;
18973;SDS011;9621;48.690;9.466;2023-05-23T02:26:32;16.02;;;11.93;;
18973;SDS011;9621;48.690;9.466;2023-05-23T02:28:59;15.00;;;12.27;;
18973;SDS011;9621;48.690;9.466;2023-05-23T02:31:26;16.50;;;12.70;;
18973;SDS011;9621;48.690;9.466;2023-05-23T02:33:53;17.20;;;12.73;;
18973;SDS011;9621;48.690;9.466;2023-05-23T02:36:21;17.02;;;11.98;;
18973;SDS011;9621;48.690;9.466;2023-05-23T02:38:48;18.55;;;11.27;;
18973;SDS011;9621;48.690;9.466;2023-05-23T02:41:15;19.33;;;12.30;;
18973;SDS011;9621;48.690;9.466;2023-05-23T02:43:43;15.50;;;11.38;;
18973;SDS011;9621;48.690;9.466;2023-05-23T02:46:11;16.08;;;11.38;;
18973;SDS011;9621;48.690;9.466;2023-05-23T02:48:38;15.35;;;11.95;;
18973;SDS011;9621;48.690;9.466;2023-05-23T02:51:05;14.07;;;11.60;;
18973;SDS011;9621;48.690;9.466;2023-05-23T02:53:33;16.50;;;12.20;;
18973;SDS011;9621;48.690;9.466;2023-05-23T02:56:00;16.33;;;11.68;;
18973;SDS011;9621;48.690;9.466;2023-05-23T02:58:27;16.15;;;12.93;;
18973;SDS011;9621;48.690;9.466;2023-05-23T03:00:54;19.83;;;13.07;;
18973;SDS011;9621;48.690;9.466;2023-05-23T03:03:21;19.83;;;12.85;;
18973;SDS011;9621;48.690;9.466;2023-05-23T03:05:47;16.58;;;13.38;;
18973;SDS011;9621;48.690;9.466;2023-05-23T03:08:15;20.23;;;13.35;;
18973;SDS011;9621;48.690;9.466;2023-05-23T03:10:43;20.40;;;14.00;;
18973;SDS011;9621;48.690;9.466;2023-05-23T03:13:10;19.52;;;13.50;;
18973;SDS011;9621;48.690;9.466;2023-05-23T03:15:37;19.65;;;14.63;;
18973;SDS011;9621;48.690;9.466;2023-05-23T03:18:04;19.25;;;15.23;;
18973;SDS011;9621;48.690;9.466;2023-05-23T03:20:31;16.52;;;13.35;;
18973;SDS011;9621;48.690;9.466;2023-05-23T03:22:58;20.90;;;15.02;;
18973;SDS011;9621;48.690;9.466;2023-05-23T03:25:25;20.73;;;14.85;;
18973;SDS011;9621;48.690;9.466;2023-05-23T03:27:53;19.38;;;14.50;;
18973;SDS011;9621;48.690;9.466;2023-05-23T03:30:20;19.42;;;14.93;;
18973;SDS011;9621;48.690;9.466;2023-05-23T03:32:47;18.95;;;14.40;;
18973;SDS011;9621;48.690;9.466;2023-05-23T03:35:14;19.13;;;14.27;;
18973;SDS011;9621;48.690;9.466;2023-05-23T03:37:41;17.70;;;13.85;;
18973;SDS011;9621;48.690;9.466;2023-05-23T03:40:09;19.50;;;14.20;;
18973;SDS011;9621;48.690;9.466;2023-05-23T03:42:37;18.27;;;12.88;;
18973;SDS011;9621;48.690;9.466;2023-05-23T03:45:06;21.45;;;14.07;;
18973;SDS011;9621;48.690;9.466;2023-05-23T03:47:33;16.20;;;13.20;;
18973;SDS011;9621;48.690;9.466;2023-05-23T03:50:00;21.52;;;13.65;;
18973;SDS011;9621;48.690;9.466;2023-05-23T03:52:27;18.83;;;14.27;;
18973;SDS011;9621;48.690;9.466;2023-05-23T03:54:54;20.05;;;13.13;;
18973;SDS011;9621;48.690;9.466;2023-05-23T03:57:21;19.38;;;14.15;;
18973;SDS011;9621;48.690;9.466;2023-05-23T03:59:48;21.52;;;13.77;;
18973;SDS011;9621;48.690;9.466;2023-05-23T04:02:17;22.85;;;14.48;;
18973;SDS011;9621;48.690;9.466;2023-05-23T04:04:44;20.05;;;14.70;;
18973;SDS011;9621;48.690;9.466;2023-05-23T04:07:11;18.58;;;13.73;;
18973;SDS011;9621;48.690;9.466;2023-05-23T04:09:39;21.33;;;15.10;;
18973;SDS011;9621;48.690;9.466;2023-05-23T04:12:06;27.05;;;17.67;;
18973;SDS011;9621;48.690;9.466;2023-05-23T04:14:34;36.58;;;22.95;;
18973;SDS011;9621;48.690;9.466;2023-05-23T04:17:01;38.00;;;24.42;;
18973;SDS011;9621;48.690;9.466;2023-05-23T04:19:29;40.65;;;23.95;;
18973;SDS011;9621;48.690;9.466;2023-05-23T04:21:56;39.80;;;25.67;;
18973;SDS011;9621;48.690;9.466;2023-05-23T04:24:23;41.92;;;25.75;;
18973;SDS011;9621;48.690;9.466;2023-05-23T04:26:50;39.13;;;23.98;;
18973;SDS011;9621;48.690;9.466;2023-05-23T04:29:20;34.78;;;22.48;;
18973;SDS011;9621;48.690;9.466;2023-05-23T04:31:48;45.28;;;27.02;;
18973;SDS011;9621;48.690;9.466;2023-05-23T04:34:15;43.30;;;26.25;;
18973;SDS011;9621;48.690;9.466;2023-05-23T04:36:44;45.92;;;25.80;;
18973;SDS011;9621;48.690;9.466;2023-05-23T04:39:11;45.40;;;28.90;;
18973;SDS011;9621;48.690;9.466;2023-05-23T04:41:38;45.03;;;27.15;;
18973;SDS011;9621;48.690;9.466;2023-05-23T04:44:05;46.90;;;28.60;;
18973;SDS011;9621;48.690;9.466;2023-05-23T04:46:34;48.03;;;27.88;;
18973;SDS011;9621;48.690;9.466;2023-05-23T04:49:01;50.53;;;31.27;;
18973;SDS011;9621;48.690;9.466;2023-05-23T04:51:31;46.88;;;30.00;;
18973;SDS011;9621;48.690;9.466;2023-05-23T04:53:59;51.63;;;30.77;;
18973;SDS011;9621;48.690;9.466;2023-05-23T04:56:28;53.63;;;31.70;;
18973;SDS011;9621;48.690;9.466;2023-05-23T04:58:55;51.08;;;30.23;;
18973;SDS011;9621;48.690;9.466;2023-05-23T05:01:22;57.50;;;32.45;;
18973;SDS011;9621;48.690;9.466;2023-05-23T05:03:49;55.22;;;33.13;;
18973;SDS011;9621;48.690;9.466;2023-05-23T05:06:16;59.03;;;34.63;;
18973;SDS011;9621;48.690;9.466;2023-05-23T05:08:43;58.67;;;34.53;;
18973;SDS011;9621;48.690;9.466;2023-05-23T05:11:11;55.67;;;34.22;;
18973;SDS011;9621;48.690;9.466;2023-05-23T05:13:38;59.72;;;35.53;;
18973;SDS011;9621;48.690;9.466;2023-05-23T05:16:05;64.78;;;35.58;;
18973;SDS011;9621;48.690;9.466;2023-05-23T05:18:32;65.13;;;36.85;;
18973;SDS011;9621;48.690;9.466;2023-05-23T05:21:02;57.40;;;34.28;;
18973;SDS011;9621;48.690;9.466;2023-05-23T05:23:30;54.17;;;33.33;;
18973;SDS011;9621;48.690;9.466;2023-05-23T05:25:58;55.90;;;33.70;;
18973;SDS011;9621;48.690;9.466;2023-05-23T05:28:27;59.25;;;34.58;;
18973;SDS011;9621;48.690;9.466;2023-05-23T05:30:54;55.67;;;33.45;;
18973;SDS011;9621;48.690;9.466;2023-05-23T05:33:20;60.03;;;35.58;;
18973;SDS011;9621;48.690;9.466;2023-05-23T05:35:48;57.55;;;35.80;;
18973;SDS011;9621;48.690;9.466;2023-05-23T05:38:16;63.22;;;34.67;;
18973;SDS011;9621;48.690;9.466;2023-05-23T05:40:43;60.75;;;35.55;;
18973;SDS011;9621;48.690;9.466;2023-05-23T05:43:10;59.20;;;35.55;;
18973;SDS011;9621;48.690;9.466;2023-05-23T05:45:38;56.45;;;34.90;;
18973;SDS011;9621;48.690;9.466;2023-05-23T05:48:05;63.08;;;36.40;;
18973;SDS011;9621;48.690;9.466;2023-05-23T05:50:32;56.80;;;36.63;;
18973;SDS011;9621;48.690;9.466;2023-05-23T05:52:59;65.13;;;37.70;;
18973;SDS011;9621;48.690;9.466;2023-05-23T05:55:27;60.50;;;35.40;;
18973;SDS011;9621;48.690;9.466;2023-05-23T05:57:54;63.70;;;36.67;;
18973;SDS011;9621;48.690;9.466;2023-05-23T06:00:23;61.72;;;37.15;;
18973;SDS011;9621;48.690;9.466;2023-05-23T06:02:51;60.10;;;36.97;;
18973;SDS011;9621;48.690;9.466;2023-05-23T06:05:21;58.08;;;36.92;;
18973;SDS011;9621;48.690;9.466;2023-05-23T06:07:48;58.50;;;36.47;;
18973;SDS011;9621;48.690;9.466;2023-05-23T06:10:18;58.85;;;37.22;;
18973;SDS011;9621;48.690;9.466;2023-05-23T06:12:45;57.00;;;35.88;;
18973;SDS011;9621;48.690;9.466;2023-05-23T06:15:13;56.80;;;36.13;;
18973;SDS011;9621;48.690;9.466;2023-05-23T06:17:41;55.80;;;34.47;;
18973;SDS011;9621;48.690;9.466;2023-05-23T06:20:10;54.38;;;35.65;;
18973;SDS011;9621;48.690;9.466;2023-05-23T06:22:37;55.85;;;34.20;;
18973;SDS011;9621;48.690;9.466;2023-05-23T06:25:07;52.30;;;32.33;;
18973;SDS011;9621;48.690;9.466;2023-05-23T06:27:34;50.85;;;33.28;;
18973;SDS011;9621;48.690;9.466;2023-05-23T06:30:03;54.25;;;33.05;;
18973;SDS011;9621;48.690;9.466;2023-05-23T06:32:33;52.25;;;33.08;;
18973;SDS011;9621;48.690;9.466;2023-05-23T06:35:03;48.08;;;31.35;;
18973;SDS011;9621;48.690;9.466;2023-05-23T06:37:34;44.25;;;30.25;;
18973;SDS011;9621;48.690;9.466;2023-05-23T06:40:02;42.65;;;29.30;;
18973;SDS011;9621;48.690;9.466;2023-05-23T06:42:30;42.95;;;28.75;;
18973;SDS011;9621;48.690;9.466;2023-05-23T06:44:56;42.42;;;29.58;;
18973;SDS011;9621;48.690;9.466;2023-05-23T06:47:23;44.55;;;28.35;;
18973;SDS011;9621;48.690;9.466;2023-05-23T06:49:50;45.72;;;30.60;;
18973;SDS011;9621;48.690;9.466;2023-05-23T06:52:18;46.10;;;29.40;;
18973;SDS011;9621;48.690;9.466;2023-05-23T06:54:46;42.88;;;28.10;;
18973;SDS011;9621;48.690;9.466;2023-05-23T06:57:13;42.58;;;28.77;;
18973;SDS011;9621;48.690;9.466;2023-05-23T06:59:40;45.03;;;31.45;;
18973;SDS011;9621;48.690;9.466;2023-05-23T07:02:08;47.33;;;31.23;;
18973;SDS011;9621;48.690;9.466;2023-05-23T07:04:35;46.85;;;30.30;;
18973;SDS011;9621;48.690;9.466;2023-05-23T07:07:02;45.53;;;30.92;;
18973;SDS011;9621;48.690;9.466;2023-05-23T07:09:29;49.80;;;30.50;;
18973;SDS011;9621;48.690;9.466;2023-05-23T07:11:59;50.20;;;31.60;;
18973;SDS011;9621;48.690;9.466;2023-05-23T07:14:26;49.17;;;31.40;;
18973;SDS011;9621;48.690;9.466;2023-05-23T07:16:53;49.38;;;32.53;;
18973;SDS011;9621;48.690;9.466;2023-05-23T07:19:20;51.85;;;32.58;;
18973;SDS011;9621;48.690;9.466;2023-05-23T07:21:48;52.88;;;33.53;;
18973;SDS011;9621;48.690;9.466;2023-05-23T07:24:15;45.85;;;30.52;;
18973;SDS011;9621;48.690;9.466;2023-05-23T07:26:42;51.72;;;32.10;;
18973;SDS011;9621;48.690;9.466;2023-05-23T07:29:10;46.40;;;32.33;;
18973;SDS011;9621;48.690;9.466;2023-05-23T07:31:37;45.20;;;30.27;;
18973;SDS011;9621;48.690;9.466;2023-05-23T07:34:04;48.05;;;31.13;;
18973;SDS011;9621;48.690;9.466;2023-05-23T07:36:30;49.13;;;33.10;;
18973;SDS011;9621;48.690;9.466;2023-05-23T07:39:01;41.33;;;28.83;;
18973;SDS011;9621;48.690;9.466;2023-05-23T07:41:28;47.35;;;30.77;;
18973;SDS011;9621;48.690;9.466;2023-05-23T07:43:55;48.58;;;31.73;;
18973;SDS011;9621;48.690;9.466;2023-05-23T07:46:24;40.47;;;30.00;;
18973;SDS011;9621;48.690;9.466;2023-05-23T07:48:51;43.45;;;30.10;;
18973;SDS011;9621;48.690;9.466;2023-05-23T07:51:17;41.05;;;29.10;;
18973;SDS011;9621;48.690;9.466;2023-05-23T07:53:45;43.90;;;30.08;;
18973;SDS011;9621;48.690;9.466;2023-05-23T07:56:12;45.92;;;28.98;;
18973;SDS011;9621;48.690;9.466;2023-05-23T07:58:41;49.72;;;33.25;;
18973;SDS011;9621;48.690;9.466;2023-05-23T08:01:08;44.75;;;32.50;;
18973;SDS011;9621;48.690;9.466;2023-05-23T08:03:37;48.95;;;34.00;;
18973;SDS011;9621;48.690;9.466;2023-05-23T08:06:04;45.35;;;33.03;;
18973;SDS011;9621;48.690;9.466;2023-05-23T08:08:31;52.65;;;36.75;;
18973;SDS011;9621;48.690;9.466;2023-05-23T08:10:58;48.60;;;35.45;;
18973;SDS011;9621;48.690;9.466;2023-05-23T08:13:25;46.53;;;34.75;;
18973;SDS011;9621;48.690;9.466;2023-05-23T08:15:52;47.05;;;33.88;;
18973;SDS011;9621;48.690;9.466;2023-05-23T08:18:19;45.20;;;31.17;;
18973;SDS011;9621;48.690;9.466;2023-05-23T08:20:48;44.85;;;31.58;;
18973;SDS011;9621;48.690;9.466;2023-05-23T08:23:14;45.03;;;31.58;;
18973;SDS011;9621;48.690;9.466;2023-05-23T08:25:42;43.17;;;30.83;;
18973;SDS011;9621;48.690;9.466;2023-05-23T08:28:08;42.25;;;30.35;;
18973;SDS011;9621;48.690;9.466;2023-05-23T08:30:35;39.75;;;28.60;;
18973;SDS011;9621;48.690;9.466;2023-05-23T08:33:02;38.63;;;27.70;;
18973;SDS011;9621;48.690;9.466;2023-05-23T08:35:31;36.88;;;26.35;;
18973;SDS011;9621;48.690;9.466;2023-05-23T08:38:03;35.03;;;25.17;;
18973;SDS011;9621;48.690;9.466;2023-05-23T08:40:31;34.83;;;24.77;;
18973;SDS011;9621;48.690;9.466;2023-05-23T08:43:01;28.42;;;22.73;;
18973;SDS011;9621;48.690;9.466;2023-05-23T08:45:29;38.88;;;24.13;;
18973;SDS011;9621;48.690;9.466;2023-05-23T08:47:59;29.13;;;21.52;;
18973;SDS011;9621;48.690;9.466;2023-05-23T08:50:27;27.88;;;21.00;;
18973;SDS011;9621;48.690;9.466;2023-05-23T08:52:56;28.52;;;21.85;;
18973;SDS011;9621;48.690;9.466;2023-05-23T08:55:26;27.85;;;21.17;;
18973;SDS011;9621;48.690;9.466;2023-05-23T08:57:54;28.75;;;20.95;;
18973;SDS011;9621;48.690;9.466;2023-05-23T09:00:23;29.13;;;20.42;;
18973;SDS011;9621;48.690;9.466;2023-05-23T09:02:51;25.10;;;19.77;;
18973;SDS011;9621;48.690;9.466;2023-05-23T09:05:18;30.75;;;19.98;;
18973;SDS011;9621;48.690;9.466;2023-05-23T09:07:46;27.35;;;21.65;;
18973;SDS011;9621;48.690;9.466;2023-05-23T09:10:15;28.48;;;20.85;;
18973;SDS011;9621;48.690;9.466;2023-05-23T09:12:43;25.83;;;19.77;;
18973;SDS011;9621;48.690;9.466;2023-05-23T09:15:10;26.63;;;19.98;;
18973;SDS011;9621;48.690;9.466;2023-05-23T09:17:37;27.02;;;20.45;;
18973;SDS011;9621;48.690;9.466;2023-05-23T09:20:10;27.40;;;20.42;;
18973;SDS011;9621;48.690;9.466;2023-05-23T09:22:38;22.63;;;19.60;;
18973;SDS011;9621;48.690;9.466;2023-05-23T09:25:06;25.55;;;20.10;;
18973;SDS011;9621;48.690;9.466;2023-05-23T09:27:33;23.02;;;17.50;;
18973;SDS011;9621;48.690;9.466;2023-05-23T09:30:06;22.60;;;18.92;;
18973;SDS011;9621;48.690;9.466;2023-05-23T09:32:34;23.10;;;18.92;;
18973;SDS011;9621;48.690;9.466;2023-05-23T09:35:03;27.80;;;18.58;;
18973;SDS011;9621;48.690;9.466;2023-05-23T09:37:38;25.45;;;17.98;;
18973;SDS011;9621;48.690;9.466;2023-05-23T09:40:07;21.10;;;18.05;;
18973;SDS011;9621;48.690;9.466;2023-05-23T09:42:40;23.13;;;17.77;;
18973;SDS011;9621;48.690;9.466;2023-05-23T09:45:10;24.13;;;16.85;;
18973;SDS011;9621;48.690;9.466;2023-05-23T09:47:37;23.20;;;17.17;;
18973;SDS011;9621;48.690;9.466;2023-05-23T09:50:05;19.42;;;15.88;;
18973;SDS011;9621;48.690;9.466;2023-05-23T09:52:35;21.55;;;16.48;;
18973;SDS011;9621;48.690;9.466;2023-05-23T09:55:02;21.95;;;16.52;;
18973;SDS011;9621;48.690;9.466;2023-05-23T09:57:30;19.77;;;15.05;;
18973;SDS011;9621;48.690;9.466;2023-05-23T09:59:59;21.13;;;16.33;;
18973;SDS011;9621;48.690;9.466;2023-05-23T10:05:35;19.65;;;13.80;;
18973;SDS011;9621;48.690;9.466;2023-05-23T10:08:06;20.60;;;13.73;;
18973;SDS011;9621;48.690;9.466;2023-05-23T10:10:48;19.15;;;13.38;;
18973;SDS011;9621;48.690;9.466;2023-05-23T10:13:53;20.83;;;14.50;;
18973;SDS011;9621;48.690;9.466;2023-05-23T10:16:22;20.33;;;14.35;;
18973;SDS011;9621;48.690;9.466;2023-05-23T10:18:56;17.13;;;13.23;;
18973;SDS011;9621;48.690;9.466;2023-05-23T10:21:28;17.27;;;13.27;;
18973;SDS011;9621;48.690;9.466;2023-05-23T10:23:58;15.13;;;12.90;;
18973;SDS011;9621;48.690;9.466;2023-05-23T10:26:25;18.67;;;14.13;;
18973;SDS011;9621;48.690;9.466;2023-05-23T10:28:52;19.13;;;14.27;;
18973;SDS011;9621;48.690;9.466;2023-05-23T10:31:20;16.98;;;13.73;;
18973;SDS011;9621;48.690;9.466;2023-05-23T10:33:52;20.13;;;13.60;;
18973;SDS011;9621;48.690;9.466;2023-05-23T10:36:31;18.60;;;14.30;;
18973;SDS011;9621;48.690;9.466;2023-05-23T10:39:03;17.95;;;13.30;;
18973;SDS011;9621;48.690;9.466;2023-05-23T10:41:35;16.08;;;14.02;;
18973;SDS011;9621;48.690;9.466;2023-05-23T10:44:09;26.83;;;16.38;;
18973;SDS011;9621;48.690;9.466;2023-05-23T10:46:50;18.55;;;14.23;;
18973;SDS011;9621;48.690;9.466;2023-05-23T10:49:20;18.85;;;14.43;;
18973;SDS011;9621;48.690;9.466;2023-05-23T10:52:02;19.45;;;13.45;;
18973;SDS011;9621;48.690;9.466;2023-05-23T10:54:33;17.98;;;14.10;;
18973;SDS011;9621;48.690;9.466;2023-05-23T10:57:03;18.60;;;13.90;;
18973;SDS011;9621;48.690;9.466;2023-05-23T10:59:30;18.40;;;13.25;;
18973;SDS011;9621;48.690;9.466;2023-05-23T11:01:58;16.33;;;13.35;;
18973;SDS011;9621;48.690;9.466;2023-05-23T11:04:28;15.75;;;13.20;;
18973;SDS011;9621;48.690;9.466;2023-05-23T11:06:55;16.20;;;13.02;;
18973;SDS011;9621;48.690;9.466;2023-05-23T11:09:22;15.70;;;11.93;;
18973;SDS011;9621;48.690;9.466;2023-05-23T11:11:59;15.18;;;12.38;;
18973;SDS011;9621;48.690;9.466;2023-05-23T11:14:32;13.82;;;11.88;;
18973;SDS011;9621;48.690;9.466;2023-05-23T11:17:17;16.38;;;12.80;;
18973;SDS011;9621;48.690;9.466;2023-05-23T11:19:59;15.27;;;11.40;;
18973;SDS011;9621;48.690;9.466;2023-05-23T11:22:30;15.98;;;12.32;;
18973;SDS011;9621;48.690;9.466;2023-05-23T11:24:57;15.95;;;12.38;;
18973;SDS011;9621;48.690;9.466;2023-05-23T11:27:26;13.80;;;11.70;;
18973;SDS011;9621;48.690;9.466;2023-05-23T11:29:57;16.30;;;11.63;;
18973;SDS011;9621;48.690;9.466;2023-05-23T11:32:26;15.85;;;12.00;;
18973;SDS011;9621;48.690;9.466;2023-05-23T11:34:54;14.38;;;11.13;;
18973;SDS011;9621;48.690;9.466;2023-05-23T11:37:25;15.15;;;11.70;;
18973;SDS011;9621;48.690;9.466;2023-05-23T11:39:53;14.27;;;11.18;;
18973;SDS011;9621;48.690;9.466;2023-05-23T11:42:20;15.80;;;11.35;;
18973;SDS011;9621;48.690;9.466;2023-05-23T11:44:48;15.43;;;11.85;;
18973;SDS011;9621;48.690;9.466;2023-05-23T11:47:15;20.13;;;11.27;;
18973;SDS011;9621;48.690;9.466;2023-05-23T11:49:44;14.95;;;11.82;;
18973;SDS011;9621;48.690;9.466;2023-05-23T11:52:12;16.50;;;11.35;;
18973;SDS011;9621;48.690;9.466;2023-05-23T11:54:40;15.82;;;11.23;;
18973;SDS011;9621;48.690;9.466;2023-05-23T11:57:07;16.10;;;11.98;;
18973;SDS011;9621;48.690;9.466;2023-05-23T11:59:34;14.38;;;11.30;;
18973;SDS011;9621;48.690;9.466;2023-05-23T12:02:02;14.77;;;11.68;;
18973;SDS011;9621;48.690;9.466;2023-05-23T12:04:30;12.48;;;10.68;;
18973;SDS011;9621;48.690;9.466;2023-05-23T12:06:59;10.95;;;9.80;;
18973;SDS011;9621;48.690;9.466;2023-05-23T12:09:31;16.17;;;12.60;;
18973;SDS011;9621;48.690;9.466;2023-05-23T12:11:59;15.20;;;11.32;;
18973;SDS011;9621;48.690;9.466;2023-05-23T12:14:27;12.82;;;10.32;;
18973;SDS011;9621;48.690;9.466;2023-05-23T12:16:54;11.25;;;9.65;;
18973;SDS011;9621;48.690;9.466;2023-05-23T12:19:22;12.30;;;9.40;;
18973;SDS011;9621;48.690;9.466;2023-05-23T12:21:49;11.50;;;9.40;;
18973;SDS011;9621;48.690;9.466;2023-05-23T12:24:17;12.48;;;9.00;;
18973;SDS011;9621;48.690;9.466;2023-05-23T12:26:45;12.00;;;8.63;;
18973;SDS011;9621;48.690;9.466;2023-05-23T12:29:21;10.40;;;8.20;;
18973;SDS011;9621;48.690;9.466;2023-05-23T12:31:54;10.00;;;7.65;;
18973;SDS011;9621;48.690;9.466;2023-05-23T12:34:23;10.75;;;7.53;;
18973;SDS011;9621;48.690;9.466;2023-05-23T12:36:53;10.95;;;7.28;;
18973;SDS011;9621;48.690;9.466;2023-05-23T12:39:23;17.13;;;8.35;;
18973;SDS011;9621;48.690;9.466;2023-05-23T12:41:51;9.50;;;7.88;;
18973;SDS011;9621;48.690;9.466;2023-05-23T12:44:21;9.57;;;7.75;;
18973;SDS011;9621;48.690;9.466;2023-05-23T12:46:48;10.85;;;8.45;;
18973;SDS011;9621;48.690;9.466;2023-05-23T12:49:15;10.68;;;8.68;;
18973;SDS011;9621;48.690;9.466;2023-05-23T12:51:42;10.00;;;8.65;;
18973;SDS011;9621;48.690;9.466;2023-05-23T12:54:09;8.30;;;7.38;;
18973;SDS011;9621;48.690;9.466;2023-05-23T12:56:36;14.10;;;8.93;;
18973;SDS011;9621;48.690;9.466;2023-05-23T12:59:03;10.85;;;8.15;;
18973;SDS011;9621;48.690;9.466;2023-05-23T13:01:31;9.60;;;7.18;;
18973;SDS011;9621;48.690;9.466;2023-05-23T13:03:59;7.82;;;6.22;;
18973;SDS011;9621;48.690;9.466;2023-05-23T13:06:26;7.97;;;6.65;;
18973;SDS011;9621;48.690;9.466;2023-05-23T13:08:53;8.68;;;6.25;;
18973;SDS011;9621;48.690;9.466;2023-05-23T13:11:20;7.25;;;6.10;;
18973;SDS011;9621;48.690;9.466;2023-05-23T13:13:47;7.35;;;6.63;;
18973;SDS011;9621;48.690;9.466;2023-05-23T13:16:14;7.75;;;6.55;;
18973;SDS011;9621;48.690;9.466;2023-05-23T13:18:43;9.65;;;6.32;;
18973;SDS011;9621;48.690;9.466;2023-05-23T13:21:10;6.28;;;5.68;;
18973;SDS011;9621;48.690;9.466;2023-05-23T13:23:40;7.05;;;6.30;;
18973;SDS011;9621;48.690;9.466;2023-05-23T13:26:08;11.02;;;6.93;;
18973;SDS011;9621;48.690;9.466;2023-05-23T13:28:35;7.47;;;5.93;;
18973;SDS011;9621;48.690;9.466;2023-05-23T13:31:02;10.00;;;5.75;;
18973;SDS011;9621;48.690;9.466;2023-05-23T13:33:32;9.20;;;6.20;;
18973;SDS011;9621;48.690;9.466;2023-05-23T13:36:03;7.10;;;6.07;;
18973;SDS011;9621;48.690;9.466;2023-05-23T13:38:31;8.75;;;6.30;;
18973;SDS011;9621;48.690;9.466;2023-05-23T13:40:58;7.00;;;5.93;;
18973;SDS011;9621;48.690;9.466;2023-05-23T13:43:25;7.22;;;5.90;;
18973;SDS011;9621;48.690;9.466;2023-05-23T13:45:52;6.82;;;5.90;;
18973;SDS011;9621;48.690;9.466;2023-05-23T13:48:19;6.35;;;5.30;;
18973;SDS011;9621;48.690;9.466;2023-05-23T13:50:45;5.53;;;4.93;;
18973;SDS011;9621;48.690;9.466;2023-05-23T13:53:14;6.40;;;5.15;;
18973;SDS011;9621;48.690;9.466;2023-05-23T13:55:45;6.53;;;5.47;;
18973;SDS011;9621;48.690;9.466;2023-05-23T13:58:13;6.63;;;5.25;;
18973;SDS011;9621;48.690;9.466;2023-05-23T14:00:40;8.18;;;5.80;;
18973;SDS011;9621;48.690;9.466;2023-05-23T14:03:08;6.50;;;5.78;;
18973;SDS011;9621;48.690;9.466;2023-05-23T14:05:35;6.82;;;5.82;;
18973;SDS011;9621;48.690;9.466;2023-05-23T14:08:02;6.75;;;5.65;;
18973;SDS011;9621;48.690;9.466;2023-05-23T14:10:33;7.70;;;5.50;;
18973;SDS011;9621;48.690;9.466;2023-05-23T14:13:00;7.70;;;5.10;;
18973;SDS011;9621;48.690;9.466;2023-05-23T14:15:28;5.22;;;4.72;;
18973;SDS011;9621;48.690;9.466;2023-05-23T14:17:55;6.60;;;4.80;;
18973;SDS011;9621;48.690;9.466;2023-05-23T14:20:22;5.28;;;4.20;;
18973;SDS011;9621;48.690;9.466;2023-05-23T14:22:49;6.53;;;4.78;;
18973;SDS011;9621;48.690;9.466;2023-05-23T14:25:17;5.13;;;4.32;;
18973;SDS011;9621;48.690;9.466;2023-05-23T14:27:45;8.43;;;4.88;;
18973;SDS011;9621;48.690;9.466;2023-05-23T14:30:12;5.85;;;4.05;;
18973;SDS011;9621;48.690;9.466;2023-05-23T14:32:40;10.50;;;4.97;;
18973;SDS011;9621;48.690;9.466;2023-05-23T14:35:08;4.40;;;3.80;;
18973;SDS011;9621;48.690;9.466;2023-05-23T14:37:35;6.18;;;4.78;;
18973;SDS011;9621;48.690;9.466;2023-05-23T14:40:02;5.25;;;4.70;;
18973;SDS011;9621;48.690;9.466;2023-05-23T14:42:29;5.70;;;4.32;;
18973;SDS011;9621;48.690;9.466;2023-05-23T14:44:58;5.10;;;4.60;;
18973;SDS011;9621;48.690;9.466;2023-05-23T14:47:24;6.00;;;4.63;;
18973;SDS011;9621;48.690;9.466;2023-05-23T14:49:51;6.30;;;4.43;;